Terminal Aerodrome Forecast
Issued by NWS Louisville, KY

Home | Current Version | Previous Version | Text Only | Print | Product List | Glossary On
Versions: 1 2 3 4 5 6 7 8 9 10 11 12 13 14 15
000
FTUS43 KLMK 191141
TAFSDF
TAF
KSDF 191141Z 1912/2018 VRB03KT P6SM FEW060 SCT110
     FM191400 22007KT P6SM VCTS SCT050CB BKN110
     FM191800 28007KT P6SM FEW070 FEW200
     FM200100 VRB03KT P6SM FEW060 FEW250
      TEMPO 2009/2012 4SM BR
     FM201400 14004KT P6SM FEW250=

USA.gov is the U.S. government's official web portal to all federal, state and local government web resources and services.